Time;durP1;ratioP1;P1;durP2;ratioP2;P2;SDS_P1;SDS_P2;PMS_P1;PMS_P2;Temp;Humidity;BMP_temperature;BMP_pressure;BME280_temperature;BME280_humidity;BME280_pressure;Samples;Min_cycle;Max_cycle;Signal;HPM_P1;HPM_P2
2022/11/24 00:00:51;;;;;;;30.52;20.20;;;;;;;1.63;83.57;99827.67;1757271;81;21066;-77
2022/11/24 00:03:18;;;;;;;31.55;20.88;;;;;;;1.63;83.57;99828.97;1756916;80;21836;-76
2022/11/24 00:05:46;;;;;;;32.17;22.17;;;;;;;1.63;83.59;99820.33;1755474;80;21407;-76
2022/11/24 00:08:13;;;;;;;30.85;20.97;;;;;;;1.63;83.54;99819.02;1754503;80;21012;-76
2022/11/24 00:10:40;;;;;;;30.65;20.40;;;;;;;1.61;83.54;99813.91;1755653;81;21048;-76
2022/11/24 00:13:06;;;;;;;32.93;21.93;;;;;;;1.60;83.49;99810.08;1754687;81;20953;-76
2022/11/24 00:15:33;;;;;;;29.48;20.37;;;;;;;1.58;83.50;99804.12;1755390;80;21492;-76
2022/11/24 00:18:00;;;;;;;36.23;21.87;;;;;;;1.57;83.50;99803.28;1753193;80;21515;-76
2022/11/24 00:20:28;;;;;;;32.93;21.93;;;;;;;1.55;83.47;99802.52;1752237;81;21089;-77
2022/11/24 00:22:56;;;;;;;31.42;21.15;;;;;;;1.54;83.47;99813.83;1759207;80;21024;-77
2022/11/24 00:25:24;;;;;;;32.67;20.45;;;;;;;1.51;83.44;99802.28;1758789;80;20957;-76
2022/11/24 00:27:52;;;;;;;34.60;22.13;;;;;;;1.51;83.46;99797.08;1756452;81;23283;-77
2022/11/24 00:30:20;;;;;;;29.50;20.40;;;;;;;1.52;83.42;99797.45;1754815;81;21048;-77
2022/11/24 00:32:49;;;;;;;30.52;20.23;;;;;;;1.50;83.38;99784.98;1753407;80;21028;-76
2022/11/24 00:35:18;;;;;;;31.60;20.15;;;;;;;1.49;83.40;99784.61;1758111;81;20965;-76
2022/11/24 00:37:47;;;;;;;32.83;20.43;;;;;;;1.52;83.42;99796.16;1757972;80;20996;-76
2022/11/24 00:40:17;;;;;;;31.05;21.62;;;;;;;1.52;83.41;99798.76;1757136;79;21842;-76
2022/11/24 00:42:47;;;;;;;33.85;20.92;;;;;;;1.53;83.37;99798.30;1728920;81;20947;-76
2022/11/24 00:45:17;;;;;;;33.65;20.75;;;;;;;1.55;83.41;99788.21;1728243;81;20959;-76
2022/11/24 00:47:45;;;;;;;28.32;18.07;;;;;;;1.59;83.43;99783.67;1753251;81;21631;-76
2022/11/24 00:50:16;;;;;;;28.45;19.92;;;;;;;1.59;83.40;99776.70;1752733;81;21067;-75
2022/11/24 00:52:46;;;;;;;32.38;20.85;;;;;;;1.60;83.35;99771.04;1759462;80;21787;-76
2022/11/24 00:55:15;;;;;;;32.23;20.37;;;;;;;1.61;83.34;99766.21;1785977;80;21379;-77
2022/11/24 00:57:42;;;;;;;31.62;20.30;;;;;;;1.60;83.30;99762.77;1780040;80;21411;-76
2022/11/24 01:00:10;;;;;;;31.07;21.07;;;;;;;1.57;83.24;99753.83;1780525;80;21451;-77
2022/11/24 01:02:36;;;;;;;28.62;19.60;;;;;;;1.54;83.24;99753.97;1793604;79;21052;-76
2022/11/24 01:05:04;;;;;;;28.73;19.65;;;;;;;1.55;83.26;99750.94;1781948;79;21812;-76
2022/11/24 01:07:31;;;;;;;29.70;19.05;;;;;;;1.55;83.26;99744.42;1818867;78;21320;-76
2022/11/24 01:09:57;;;;;;;29.42;19.73;;;;;;;1.53;83.21;99724.95;1751357;81;21009;-76
2022/11/24 01:12:23;;;;;;;30.92;19.70;;;;;;;1.51;83.20;99743.73;1820129;77;21058;-76
2022/11/24 01:14:50;;;;;;;31.02;20.43;;;;;;;1.51;83.19;99748.93;1809120;78;20982;-76
2022/11/24 01:17:18;;;;;;;28.40;19.45;;;;;;;1.52;83.24;99737.59;1816860;77;21914;-76
2022/11/24 01:19:48;;;;;;;29.42;19.90;;;;;;;1.52;83.25;99731.09;1822917;78;20916;-76
2022/11/24 01:22:14;;;;;;;30.05;20.37;;;;;;;1.50;83.20;99717.33;1821879;77;21037;-77
2022/11/24 01:24:41;;;;;;;28.35;19.50;;;;;;;1.47;83.20;99718.80;1744573;81;21005;-76
2022/11/24 01:27:07;;;;;;;29.77;20.02;;;;;;;1.46;83.26;99719.72;1746381;81;21744;-76
2022/11/24 01:29:35;;;;;;;30.85;19.57;;;;;;;1.48;83.29;99740.45;1752736;81;22551;-76
2022/11/24 01:32:01;;;;;;;32.93;21.42;;;;;;;1.50;83.30;99739.91;1748939;81;20973;-77
2022/11/24 01:34:28;;;;;;;29.42;20.77;;;;;;;1.52;83.32;99732.85;1757086;80;21039;-77
2022/11/24 01:36:55;;;;;;;29.40;20.32;;;;;;;1.53;83.32;99724.95;1760433;79;21015;-76
2022/11/24 01:39:21;;;;;;;28.67;19.82;;;;;;;1.54;83.33;99721.43;1764033;81;21050;-76
2022/11/24 01:41:47;;;;;;;30.62;20.92;;;;;;;1.57;83.32;99719.16;1786467;79;21821;-75
2022/11/24 01:44:29;;;;;;;30.55;21.05;;;;;;;1.56;83.28;99689.69;1784500;80;21087;-77
2022/11/24 01:47:08;;;;;;;32.03;21.35;;;;;;;1.53;83.22;99705.44;1781719;79;21004;-76
2022/11/24 01:49:46;;;;;;;30.55;20.80;;;;;;;1.54;83.25;99706.28;1773861;80;21095;-76
2022/11/24 01:52:24;;;;;;;32.00;20.70;;;;;;;1.55;83.27;99697.58;1770797;80;21039;-76
2022/11/24 01:55:01;;;;;;;32.50;21.02;;;;;;;1.55;83.26;99702.32;1724662;81;21533;-76
2022/11/24 01:57:33;;;;;;;32.00;19.67;;;;;;;1.57;83.24;99708.74;1726709;82;20983;-77
2022/11/24 02:00:04;;;;;;;32.35;21.05;;;;;;;1.59;83.26;99704.29;1713787;82;21020;-76
2022/11/24 02:02:32;;;;;;;28.02;19.82;;;;;;;1.59;83.24;99683.47;1730152;81;21125;-76
2022/11/24 02:05:12;;;;;;;29.63;18.95;;;;;;;1.59;83.18;99684.77;1725217;81;21395;-76
2022/11/24 02:07:38;;;;;;;33.67;19.25;;;;;;;1.59;83.17;99682.16;1704702;82;21911;-76
2022/11/24 02:10:09;;;;;;;29.50;19.02;;;;;;;1.58;83.17;99690.90;1714615;81;21071;-76
2022/11/24 02:12:36;;;;;;;29.10;19.73;;;;;;;1.59;83.16;99685.61;1722076;81;20963;-76
2022/11/24 02:15:04;;;;;;;28.55;19.15;;;;;;;1.61;83.16;99679.02;1714555;83;20992;-77
2022/11/24 02:17:30;;;;;;;26.70;18.50;;;;;;;1.62;83.15;99690.64;1690169;83;21047;-76
2022/11/24 02:20:03;;;;;;;29.75;20.08;;;;;;;1.62;83.15;99689.34;1725140;83;21611;-76
2022/11/24 02:23:03;;;;;;;30.25;19.30;;;;;;;1.63;83.11;99697.98;1727683;81;21054;-76
2022/11/24 02:25:56;;;;;;;27.73;18.98;;;;;;;1.64;83.11;99678.84;1722494;83;21505;-76
2022/11/24 02:28:23;;;;;;;30.12;18.52;;;;;;;1.66;83.14;99681.77;1710718;83;20965;-76
2022/11/24 02:30:50;;;;;;;26.87;18.48;;;;;;;1.66;83.11;99686.97;1715208;83;21051;-77
2022/11/24 02:33:17;;;;;;;25.97;17.95;;;;;;;1.67;83.11;99680.83;1708570;83;21902;-76
2022/11/24 02:35:45;;;;;;;28.57;19.00;;;;;;;1.69;83.11;99676.38;1735407;82;20947;-76
2022/11/24 02:38:13;;;;;;;29.23;18.75;;;;;;;1.70;83.11;99665.04;1733917;82;21315;-77
2022/11/24 02:40:48;;;;;;;25.68;17.52;;;;;;;1.72;83.10;99661.88;1725751;82;21009;-77
2022/11/24 02:43:20;;;;;;;29.92;18.73;;;;;;;1.73;83.09;99656.21;1733822;82;20955;-76
2022/11/24 02:45:48;;;;;;;25.20;16.82;;;;;;;1.74;83.08;99654.02;1736483;82;22467;-76
2022/11/24 02:48:16;;;;;;;27.90;18.60;;;;;;;1.75;83.07;99646.58;1734911;81;20999;-77
2022/11/24 02:50:43;;;;;;;27.32;17.92;;;;;;;1.76;83.07;99650.02;1705746;82;21054;-76
2022/11/24 02:53:11;;;;;;;27.77;18.37;;;;;;;1.77;83.05;99646.49;1740971;78;21076;-77
2022/11/24 02:55:39;;;;;;;27.35;18.52;;;;;;;1.79;83.09;99640.73;1793490;80;21095;-76
2022/11/24 02:58:08;;;;;;;24.05;17.12;;;;;;;1.81;83.07;99632.38;1793958;80;21899;-76
2022/11/24 03:00:35;;;;;;;28.25;18.40;;;;;;;1.83;83.05;99624.84;1785746;78;21015;-76
2022/11/24 03:03:01;;;;;;;27.00;17.48;;;;;;;1.84;83.03;99621.80;1776520;79;21070;-77
2022/11/24 03:05:28;;;;;;;28.20;18.70;;;;;;;1.84;83.05;99616.59;1740802;81;21063;-76
2022/11/24 03:07:55;;;;;;;28.23;18.73;;;;;;;1.84;83.03;99620.50;1757651;81;21067;-76
2022/11/24 03:10:23;;;;;;;26.42;17.98;;;;;;;1.85;83.05;99612.60;1756753;81;22391;-76
2022/11/24 03:12:50;;;;;;;26.35;18.42;;;;;;;1.87;83.05;99600.33;1758561;81;21032;-77
2022/11/24 03:15:16;;;;;;;26.23;17.35;;;;;;;1.86;83.00;99593.45;1751709;80;21048;-76
2022/11/24 03:17:43;;;;;;;27.58;17.25;;;;;;;1.87;83.07;99604.23;1758890;81;21032;-76
2022/11/24 03:20:11;;;;;;;26.45;17.25;;;;;;;1.89;83.08;99601.54;1751076;81;21364;-72
2022/11/24 03:22:37;;;;;;;26.02;16.35;;;;;;;1.92;83.13;99594.38;1741404;81;21788;-72
2022/11/24 03:25:05;;;;;;;26.40;17.02;;;;;;;1.95;83.14;99593.39;1755034;81;21000;-72
2022/11/24 03:27:32;;;;;;;27.42;17.00;;;;;;;1.96;83.14;99592.00;1756600;80;21526;-74
2022/11/24 03:29:58;;;;;;;25.77;16.75;;;;;;;1.98;83.16;99589.30;1756489;80;21107;-79
2022/11/24 03:32:24;;;;;;;29.40;17.55;;;;;;;2.00;83.16;99595.26;1758828;80;20929;-75
2022/11/24 03:34:51;;;;;;;28.60;17.85;;;;;;;2.01;83.13;99583.91;1757326;80;22606;-77
2022/11/24 03:37:18;;;;;;;28.80;17.00;;;;;;;2.01;83.09;99589.96;1741858;81;21073;-76
2022/11/24 03:39:46;;;;;;;28.27;17.05;;;;;;;2.01;83.10;99582.61;1744240;81;21127;-75
2022/11/24 03:42:13;;;;;;;27.20;16.85;;;;;;;2.02;83.14;99589.49;1735389;81;21489;-75
2022/11/24 03:44:39;;;;;;;27.65;17.02;;;;;;;2.03;83.14;99589.91;1742160;80;21061;-75
2022/11/24 03:47:06;;;;;;;25.80;17.07;;;;;;;2.04;83.17;99595.48;1749178;81;22521;-72
2022/11/24 03:49:32;;;;;;;26.77;17.27;;;;;;;2.05;83.14;99601.53;1783009;78;21102;-74
2022/11/24 03:51:59;;;;;;;25.65;15.98;;;;;;;2.05;83.15;99601.53;1755059;80;21059;-75
2022/11/24 03:54:25;;;;;;;26.37;17.12;;;;;;;2.06;83.17;99601.44;1743624;80;20997;-75
2022/11/24 03:56:52;;;;;;;25.17;16.42;;;;;;;2.07;83.17;99603.11;1750840;81;21044;-73
2022/11/24 03:59:18;;;;;;;25.68;17.05;;;;;;;2.09;83.18;99600.41;1747796;81;21918;-75
2022/11/24 04:01:45;;;;;;;30.15;18.23;;;;;;;2.10;83.20;99604.23;1745844;81;21042;-76
2022/11/24 04:04:12;;;;;;;28.80;18.42;;;;;;;2.13;83.22;99599.33;1742371;81;21050;-72
2022/11/24 04:06:39;;;;;;;27.05;16.77;;;;;;;2.14;83.23;99592.73;1753979;81;21028;-71
2022/11/24 04:09:05;;;;;;;30.65;18.05;;;;;;;2.16;83.24;99595.23;1755435;81;21005;-73
2022/11/24 04:14:18;;;;;;;29.10;18.70;;;;;;;2.16;83.24;99597.37;1746067;81;21032;-70
2022/11/24 04:16:44;;;;;;;26.10;17.00;;;;;;;2.16;83.24;99601.28;1756989;81;20993;-70
2022/11/24 04:19:11;;;;;;;29.72;17.25;;;;;;;2.17;83.24;99591.23;1753965;79;21083;-71
2022/11/24 04:21:38;;;;;;;25.57;16.23;;;;;;;2.17;83.21;99588.64;1760511;81;21003;-70
2022/11/24 04:24:04;;;;;;;23.30;16.45;;;;;;;2.18;83.22;99581.66;1761222;81;21907;-70
2022/11/24 04:26:32;;;;;;;27.42;17.12;;;;;;;2.17;83.17;99596.45;1728855;81;21044;-70
2022/11/24 04:28:58;;;;;;;27.22;17.45;;;;;;;2.17;83.18;99587.33;1756680;81;21035;-70
2022/11/24 04:31:26;;;;;;;26.30;16.40;;;;;;;2.18;83.19;99579.89;1756845;81;21048;-70
2022/11/24 04:33:53;;;;;;;24.02;15.28;;;;;;;2.19;83.20;99576.35;1758063;81;20992;-69
2022/11/24 04:36:19;;;;;;;27.98;16.50;;;;;;;2.19;83.19;99569.84;1758118;81;21832;-70
2022/11/24 04:38:46;;;;;;;25.65;15.98;;;;;;;2.21;83.19;99562.77;1758368;81;20937;-70
2022/11/24 04:41:13;;;;;;;25.85;16.70;;;;;;;2.22;83.22;99560.56;1759462;81;20992;-69
2022/11/24 04:43:39;;;;;;;23.70;15.13;;;;;;;2.23;83.21;99567.45;1758100;81;20972;-70
2022/11/24 04:46:08;;;;;;;24.23;16.00;;;;;;;2.23;83.21;99560.94;1757263;81;20992;-70
2022/11/24 04:48:36;;;;;;;27.50;17.02;;;;;;;2.25;83.26;99568.19;1752040;81;21950;-71
2022/11/24 04:51:05;;;;;;;27.15;17.27;;;;;;;2.26;83.30;99574.24;1747411;81;21003;-68
2022/11/24 04:53:32;;;;;;;27.00;17.37;;;;;;;2.28;83.33;99569.31;1760323;81;21490;-69
2022/11/24 04:55:58;;;;;;;26.80;16.10;;;;;;;2.30;83.39;99567.45;1756346;80;21120;-75
2022/11/24 04:58:24;;;;;;;26.70;16.90;;;;;;;2.34;83.43;99568.13;1758387;80;21001;-72
2022/11/24 05:00:51;;;;;;;24.77;15.83;;;;;;;2.37;83.45;99565.33;1757670;81;21832;-72
2022/11/24 05:03:18;;;;;;;27.07;16.70;;;;;;;2.39;83.50;99563.94;1757756;81;20946;-74
2022/11/24 05:05:45;;;;;;;25.35;16.57;;;;;;;2.41;83.55;99570.72;1742268;81;20965;-74
2022/11/24 05:08:12;;;;;;;26.30;17.20;;;;;;;2.43;83.59;99568.05;1757442;81;21000;-71
2022/11/24 05:10:39;;;;;;;28.23;18.17;;;;;;;2.44;83.63;99564.52;1740949;81;21134;-73
2022/11/24 05:13:09;;;;;;;27.02;17.00;;;;;;;2.48;83.71;99558.18;1752450;81;21934;-74
2022/11/24 05:15:37;;;;;;;27.58;17.70;;;;;;;2.50;83.74;99564.14;1757837;80;21447;-73
2022/11/24 05:18:09;;;;;;;28.30;17.80;;;;;;;2.51;83.81;99564.50;1758228;81;20993;-73
2022/11/24 05:20:35;;;;;;;28.85;17.23;;;;;;;2.55;83.85;99565.55;1734484;81;21016;-73
2022/11/24 05:23:05;;;;;;;27.80;17.35;;;;;;;2.57;83.88;99566.76;1758783;81;21009;-73
2022/11/24 05:25:33;;;;;;;27.02;17.45;;;;;;;2.60;83.92;99570.48;1757478;81;21811;-74
2022/11/24 05:28:01;;;;;;;26.15;17.20;;;;;;;2.62;83.97;99566.04;1757844;81;20948;-73
2022/11/24 05:30:28;;;;;;;25.95;17.20;;;;;;;2.65;84.02;99569.75;1757368;80;20985;-73
2022/11/24 05:32:55;;;;;;;28.47;18.23;;;;;;;2.68;84.08;99570.03;1758515;81;21003;-73
2022/11/24 05:35:22;;;;;;;32.00;19.35;;;;;;;2.69;84.11;99559.50;1758107;81;21056;-73
2022/11/24 05:37:49;;;;;;;36.00;20.02;;;;;;;2.73;84.17;99565.39;1734803;81;21789;-73
2022/11/24 05:40:16;;;;;;;29.75;20.02;;;;;;;2.76;84.21;99571.25;1758993;81;21420;-73
2022/11/24 05:42:43;;;;;;;30.68;20.35;;;;;;;2.80;84.29;99570.62;1734633;81;20953;-73
2022/11/24 05:45:13;;;;;;;28.95;19.05;;;;;;;2.83;84.33;99573.87;1758417;81;21430;-73
2022/11/24 05:47:41;;;;;;;28.35;18.62;;;;;;;2.88;84.35;99578.80;1758068;81;21028;-73
2022/11/24 05:50:11;;;;;;;29.18;20.10;;;;;;;2.91;84.37;99577.80;1757798;81;21725;-73
2022/11/24 05:52:38;;;;;;;29.65;20.52;;;;;;;2.94;84.43;99569.77;1757725;79;20956;-73
2022/11/24 05:55:06;;;;;;;30.70;19.23;;;;;;;2.96;84.48;99563.98;1757027;79;21294;-74
2022/11/24 05:57:34;;;;;;;30.52;19.60;;;;;;;2.99;84.50;99570.31;1757238;80;20961;-73
2022/11/24 06:00:02;;;;;;;28.83;19.07;;;;;;;3.01;84.54;99573.23;1758196;79;20980;-73
2022/11/24 06:02:31;;;;;;;31.73;20.02;;;;;;;3.04;84.59;99576.11;1756408;81;21851;-73
2022/11/24 06:04:58;;;;;;;28.67;19.52;;;;;;;3.07;84.64;99576.74;1757443;81;20976;-73
2022/11/24 06:07:24;;;;;;;31.55;19.32;;;;;;;3.11;84.67;99576.11;1734705;81;21001;-73
2022/11/24 06:09:53;;;;;;;30.02;19.35;;;;;;;3.13;84.73;99578.98;1758104;81;21044;-73
2022/11/24 06:12:20;;;;;;;30.00;19.12;;;;;;;3.17;84.75;99579.63;1758348;81;21001;-73
2022/11/24 06:14:46;;;;;;;33.75;20.95;;;;;;;3.20;84.80;99573.41;1734921;81;22007;-73
2022/11/24 06:17:13;;;;;;;28.32;19.05;;;;;;;3.23;84.80;99574.04;1734712;81;21004;-73
2022/11/24 06:19:40;;;;;;;31.37;21.12;;;;;;;3.26;84.86;99576.45;1758064;81;21083;-73
2022/11/24 06:22:06;;;;;;;30.15;20.45;;;;;;;3.28;84.89;99569.39;1734842;81;21005;-73
2022/11/24 06:24:33;;;;;;;32.55;21.30;;;;;;;3.33;84.86;99583.44;1735228;81;21000;-73
2022/11/24 06:26:59;;;;;;;34.58;22.00;;;;;;;3.35;84.88;99575.05;1734835;81;21900;-73
2022/11/24 06:29:28;;;;;;;32.40;20.05;;;;;;;3.38;84.88;99583.55;1734522;81;20853;-73
2022/11/24 06:31:55;;;;;;;30.88;20.45;;;;;;;3.41;84.94;99574.67;1735756;81;21399;-73
2022/11/24 06:34:21;;;;;;;30.08;20.75;;;;;;;3.44;84.98;99573.16;1735264;81;20989;-73
2022/11/24 06:36:48;;;;;;;27.98;18.90;;;;;;;3.48;84.98;99572.06;1735026;81;20961;-73
2022/11/24 06:39:14;;;;;;;31.95;21.10;;;;;;;3.49;85.00;99571.12;1758577;81;21737;-73
2022/11/24 06:41:41;;;;;;;33.60;21.50;;;;;;;3.51;85.04;99574.47;1758242;81;21653;-73
2022/11/24 06:44:08;;;;;;;28.65;20.62;;;;;;;3.55;85.07;99570.71;1685830;79;21064;-73
2022/11/24 06:46:35;;;;;;;30.88;20.40;;;;;;;3.57;85.09;99562.34;1758305;81;21392;-72
2022/11/24 06:49:02;;;;;;;30.90;19.82;;;;;;;3.61;85.10;99566.88;1734869;81;21001;-73
2022/11/24 06:51:29;;;;;;;33.28;21.07;;;;;;;3.62;85.09;99553.73;1734866;81;21838;-73
2022/11/24 06:53:56;;;;;;;27.60;18.92;;;;;;;3.65;85.12;99567.05;1704256;81;21060;-73
2022/11/24 06:56:24;;;;;;;33.67;20.20;;;;;;;3.67;85.13;99567.34;1671820;83;20944;-73
2022/11/24 06:58:51;;;;;;;29.10;20.15;;;;;;;3.66;85.13;99559.11;1695597;81;21135;-73
2022/11/24 07:01:26;;;;;;;26.68;19.65;;;;;;;3.67;85.14;99571.27;1747528;81;20869;-73
2022/11/24 07:03:55;;;;;;;28.07;18.95;;;;;;;3.69;85.16;99578.99;1758451;81;21870;-72
2022/11/24 07:06:23;;;;;;;30.65;19.05;;;;;;;3.71;85.19;99579.26;1758345;81;20988;-72
2022/11/24 07:08:50;;;;;;;26.23;19.30;;;;;;;3.74;85.21;99578.22;1758434;81;21507;-72
2022/11/24 07:11:20;;;;;;;27.02;19.32;;;;;;;3.76;85.24;99571.58;1738514;81;20997;-72
2022/11/24 07:13:50;;;;;;;32.58;20.70;;;;;;;3.77;85.24;99573.28;1726675;81;20954;-73
2022/11/24 07:16:22;;;;;;;31.23;21.20;;;;;;;3.79;85.25;99569.63;1704470;83;21781;-73
2022/11/24 07:18:51;;;;;;;35.15;21.60;;;;;;;3.80;85.26;99568.69;1756215;81;21067;-72
2022/11/24 07:21:19;;;;;;;27.50;20.08;;;;;;;3.82;85.28;99560.28;1758335;80;20969;-72
2022/11/24 07:23:51;;;;;;;30.23;19.98;;;;;;;3.85;85.31;99558.77;1758248;80;21043;-73
2022/11/24 07:26:18;;;;;;;25.00;17.50;;;;;;;3.86;85.28;99555.25;1758692;81;20997;-74
2022/11/24 07:28:45;;;;;;;28.75;20.48;;;;;;;3.88;85.29;99561.20;1750684;81;22304;-74
2022/11/24 07:31:15;;;;;;;29.18;18.77;;;;;;;3.89;85.30;99555.51;1703987;83;20998;-74
2022/11/24 07:33:51;;;;;;;28.52;19.82;;;;;;;3.91;85.33;99558.86;1726582;83;20957;-74
2022/11/24 07:36:18;;;;;;;29.90;20.62;;;;;;;3.91;85.31;99563.61;1727983;81;21064;-74
2022/11/24 07:38:46;;;;;;;29.52;21.25;;;;;;;3.95;85.33;99572.91;1706094;83;20969;-74
2022/11/24 07:41:14;;;;;;;29.25;21.52;;;;;;;3.97;85.38;99571.06;1704331;83;21835;-73
2022/11/24 07:43:41;;;;;;;31.75;21.97;;;;;;;3.99;85.36;99571.79;1750668;81;20977;-74
2022/11/24 07:46:10;;;;;;;31.85;21.42;;;;;;;4.01;85.40;99572.52;1733561;81;21055;-74
2022/11/24 07:48:36;;;;;;;32.63;21.17;;;;;;;4.02;85.41;99575.50;1756826;81;21403;-74
2022/11/24 07:51:03;;;;;;;28.38;19.92;;;;;;;4.04;85.41;99578.01;1734949;81;21009;-74
2022/11/24 07:53:31;;;;;;;27.17;19.70;;;;;;;4.07;85.40;99565.23;1758340;81;21843;-73
2022/11/24 07:56:00;;;;;;;27.98;19.73;;;;;;;4.07;85.38;99566.07;1759762;80;21024;-73
2022/11/24 07:58:33;;;;;;;29.57;20.32;;;;;;;4.07;85.37;99564.77;1757520;81;21386;-73
2022/11/24 08:01:02;;;;;;;29.50;20.90;;;;;;;4.08;85.40;99566.44;1758399;81;21095;-74
2022/11/24 08:03:29;;;;;;;32.17;21.37;;;;;;;4.10;85.38;99565.86;1757398;80;20930;-74
2022/11/24 08:05:57;;;;;;;29.05;21.12;;;;;;;4.11;85.42;99568.00;1757516;81;21729;-73
2022/11/24 08:08:23;;;;;;;28.50;20.10;;;;;;;4.12;85.43;99570.98;1758531;81;20981;-74
2022/11/24 08:10:51;;;;;;;28.92;20.45;;;;;;;4.14;85.44;99572.55;1758177;79;21466;-74
2022/11/24 09:48:12;;;;;;;32.75;20.08;;;;;;;4.42;90.77;99540.19;1870924;76;28951;-64
2022/11/24 09:50:39;;;;;;;25.12;17.35;;;;;;;4.45;90.19;99542.61;1827445;78;21027;-64
2022/11/24 09:53:29;;;;;;;26.87;18.73;;;;;;;4.46;89.87;99544.29;1817945;78;21916;-64
2022/11/24 09:56:11;;;;;;;25.17;18.32;;;;;;;4.46;89.67;99540.36;1843076;77;21533;-65
2022/11/24 09:58:50;;;;;;;26.93;18.48;;;;;;;4.48;89.52;99537.17;1851565;77;20941;-64
2022/11/24 10:01:19;;;;;;;28.15;19.37;;;;;;;4.50;89.38;99540.52;1853366;77;21003;-64
2022/11/24 10:03:50;;;;;;;28.57;18.67;;;;;;;4.50;89.25;99536.59;1853001;77;20910;-65
2022/11/24 10:06:30;;;;;;;24.23;18.10;;;;;;;4.52;89.14;99532.09;1849536;77;21843;-64
2022/11/24 10:09:23;;;;;;;27.77;18.55;;;;;;;4.53;89.03;99532.92;1846973;77;21049;-64
2022/11/24 10:12:11;;;;;;;27.05;18.23;;;;;;;4.54;88.91;99524.16;1826452;78;20952;-65
2022/11/24 10:15:31;;;;;;;27.27;18.50;;;;;;;4.55;88.83;99520.60;1827536;78;20987;-64
2022/11/24 10:18:15;;;;;;;27.05;18.55;;;;;;;4.56;88.71;99528.81;1827127;78;21000;-65
2022/11/24 10:20:53;;;;;;;26.37;18.57;;;;;;;4.55;88.58;99526.67;1806399;78;21785;-65
2022/11/24 10:23:42;;;;;;;28.07;19.02;;;;;;;4.55;88.52;99518.83;1827225;78;20968;-64
2022/11/24 10:26:25;;;;;;;27.27;18.52;;;;;;;4.54;88.43;99521.08;1777172;78;21098;-64
2022/11/24 10:28:54;;;;;;;28.15;18.52;;;;;;;4.56;88.38;99523.58;1827141;78;20961;-64
2022/11/24 10:31:36;;;;;;;26.85;17.87;;;;;;;4.57;88.34;99517.41;1807075;78;20960;-64
2022/11/24 10:34:14;;;;;;;26.37;17.65;;;;;;;4.57;88.27;99520.86;1827231;78;21899;-64
2022/11/24 10:37:20;;;;;;;22.65;16.15;;;;;;;4.60;88.26;99524.56;1820667;78;20939;-65
2022/11/24 10:40:02;;;;;;;27.48;18.62;;;;;;;4.61;88.20;99526.70;1818945;79;21037;-65
2022/11/24 10:42:35;;;;;;;;;;;;;;;4.60;88.13;99518.02;1821374;79;21026;-65
2022/11/24 10:45:13;;;;;;;26.40;18.57;;;;;;;4.62;88.08;99521.00;1795833;79;20437;-66
2022/11/24 10:47:41;;;;;;;27.62;19.25;;;;;;;4.62;88.06;99513.98;1793772;78;21969;-65
2022/11/24 10:50:24;;;;;;;29.20;20.20;;;;;;;4.63;88.05;99512.20;1798040;78;21018;-65
2022/11/24 10:53:18;;;;;;;29.15;18.98;;;;;;;4.63;88.00;99522.67;1798307;79;20952;-65
2022/11/24 10:55:58;;;;;;;31.77;20.20;;;;;;;4.63;87.96;99523.50;1798399;78;21374;-65
2022/11/24 10:58:31;;;;;;;28.60;19.90;;;;;;;4.64;87.91;99521.75;1797912;79;20974;-65
2022/11/24 11:01:01;;;;;;;31.50;20.25;;;;;;;4.65;87.87;99518.20;1798817;78;22519;-65
2022/11/24 11:03:31;;;;;;;30.43;19.98;;;;;;;4.65;87.84;99515.11;1797662;79;21261;-65
2022/11/24 11:06:09;;;;;;;30.25;19.95;;;;;;;4.67;87.84;99514.52;1797439;78;21037;-65
2022/11/24 11:08:36;;;;;;;27.13;19.67;;;;;;;4.67;87.79;99519.75;1797722;79;21088;-65
2022/11/24 11:11:28;;;;;;;30.88;20.65;;;;;;;4.69;87.72;99528.80;1797623;79;20956;-65
2022/11/24 11:14:06;;;;;;;28.45;19.52;;;;;;;4.68;87.66;99521.90;1770959;79;21940;-65
2022/11/24 11:16:45;;;;;;;31.68;21.37;;;;;;;4.65;87.58;99511.19;1797763;79;20978;-65
2022/11/24 11:19:38;;;;;;;30.05;20.35;;;;;;;4.64;87.53;99512.13;1798437;78;20975;-65
2022/11/24 11:22:22;;;;;;;28.05;19.32;;;;;;;4.66;87.52;99516.78;1797524;79;20959;-64
2022/11/24 11:25:06;;;;;;;29.92;20.40;;;;;;;4.67;87.49;99516.30;1797685;79;20994;-64
2022/11/24 11:27:34;;;;;;;29.02;20.15;;;;;;;4.67;87.44;99513.69;1797872;78;21892;-64
2022/11/24 11:30:16;;;;;;;27.98;19.52;;;;;;;4.64;87.38;99516.53;1797451;79;20983;-64
2022/11/24 11:32:57;;;;;;;32.65;21.73;;;;;;;4.62;87.35;99521.83;1828486;78;20939;-64
2022/11/24 11:35:29;;;;;;;28.62;19.95;;;;;;;4.62;87.30;99526.23;1817358;78;21540;-64
2022/11/24 11:38:05;;;;;;;30.20;19.52;;;;;;;4.60;87.31;99523.72;1798020;79;21385;-63
2022/11/24 11:40:32;;;;;;;31.37;20.62;;;;;;;4.60;87.29;99504.95;1771229;79;22549;-63
2022/11/24 11:43:21;;;;;;;31.10;20.27;;;;;;;4.59;87.26;99504.58;1770806;79;21002;-64
2022/11/24 11:45:50;;;;;;;28.90;19.77;;;;;;;4.59;87.26;99511.13;1797505;78;21132;-64
2022/11/24 11:48:23;;;;;;;33.30;21.65;;;;;;;4.62;87.27;99511.84;1796722;78;21014;-64
2022/11/24 11:50:53;;;;;;;29.98;20.60;;;;;;;4.60;87.23;99508.87;1797628;78;21480;-64
2022/11/24 11:53:25;;;;;;;30.57;20.72;;;;;;;4.60;87.23;99508.87;1799030;78;21899;-64
2022/11/24 11:56:15;;;;;;;30.97;20.40;;;;;;;4.61;87.24;99495.31;1797448;79;20994;-66
2022/11/24 11:59:29;;;;;;;27.05;17.95;;;;;;;4.62;87.27;99496.16;1797545;78;20982;-64
2022/11/24 12:02:19;;;;;;;28.15;19.65;;;;;;;4.65;87.26;99498.58;1797586;78;20943;-65
2022/11/24 12:04:58;;;;;;;29.63;20.40;;;;;;;4.64;87.26;99491.20;1797169;78;20939;-65
2022/11/24 12:08:02;;;;;;;32.45;20.68;;;;;;;4.66;87.31;99493.71;1796392;78;21873;-66
2022/11/24 12:10:43;;;;;;;31.40;20.27;;;;;;;4.68;87.34;99486.59;1798714;78;20998;-65
2022/11/24 12:13:50;;;;;;;31.75;20.70;;;;;;;4.72;87.37;99486.73;1796590;78;21050;-65
2022/11/24 12:16:29;;;;;;;32.03;19.55;;;;;;;4.74;87.39;99483.09;1797643;78;21519;-65
2022/11/24 12:19:29;;;;;;;29.75;20.90;;;;;;;4.77;87.36;99476.80;1797473;78;20966;-65
2022/11/24 12:22:31;;;;;;;32.90;21.25;;;;;;;4.78;87.36;99471.92;1797526;78;22421;-63
2022/11/24 12:25:22;;;;;;;27.73;18.77;;;;;;;4.76;87.32;99472.51;1797458;78;20999;-66
2022/11/24 12:28:00;;;;;;;29.85;20.62;;;;;;;4.76;87.33;99475.13;1798412;78;21002;-66
2022/11/24 12:30:41;;;;;;;31.70;20.57;;;;;;;4.76;87.31;99473.34;1797913;78;21528;-63
2022/11/24 12:33:45;;;;;;;31.97;20.25;;;;;;;4.76;87.27;99478.58;1797584;78;21021;-63
2022/11/24 12:36:15;;;;;;;;;;;;;;;4.76;87.26;99468.59;1800198;79;22825;-66
2022/11/24 12:39:02;;;;;;;27.93;18.32;;;;;;;4.76;87.27;99469.42;1797741;79;20159;-64
2022/11/24 12:41:55;;;;;;;30.00;19.77;;;;;;;4.76;87.29;99469.42;1797274;78;20978;-64
2022/11/24 12:44:55;;;;;;;19.73;12.90;;;;;;;4.79;87.29;99476.21;1798356;78;20935;-64
2022/11/24 12:47:49;;;;;;;27.02;19.27;;;;;;;4.77;87.29;99475.02;1792803;79;20967;-64
2022/11/24 12:50:23;;;;;;;28.10;19.57;;;;;;;4.78;87.26;99476.69;1782832;79;21840;-64
2022/11/24 12:52:52;;;;;;;30.35;19.32;;;;;;;4.77;87.27;99471.56;1782823;80;20996;-64
2022/11/24 12:55:21;;;;;;;27.40;19.00;;;;;;;4.80;87.29;99473.95;1782750;79;21030;-64
2022/11/24 12:58:00;;;;;;;28.12;19.35;;;;;;;4.81;87.28;99475.63;1782309;80;20999;-65
2022/11/24 13:00:33;;;;;;;26.27;18.57;;;;;;;4.81;87.24;99478.23;1783911;79;21082;-65
2022/11/24 13:03:25;;;;;;;28.20;18.98;;;;;;;4.82;87.27;99479.44;1783195;79;22489;-64
2022/11/24 13:05:57;;;;;;;28.55;18.82;;;;;;;4.83;87.26;99490.30;1782808;79;20983;-65
2022/11/24 13:08:25;;;;;;;27.58;18.02;;;;;;;4.83;87.22;99485.53;1792012;79;20931;-64
2022/11/24 13:10:52;;;;;;;24.77;18.02;;;;;;;4.86;87.26;99495.78;1782084;79;20948;-66
2022/11/24 13:13:19;;;;;;;29.27;19.07;;;;;;;4.87;87.24;99496.14;1814801;79;21497;-64
2022/11/24 13:16:00;;;;;;;28.95;19.17;;;;;;;4.88;87.26;99500.42;1742960;79;21450;-72
2022/11/24 13:19:01;;;;;;;25.68;18.55;;;;;;;4.91;87.23;99492.83;1787493;79;21011;-64
2022/11/24 13:21:44;;;;;;;31.15;19.73;;;;;;;4.92;87.23;99490.56;1782700;79;21548;-64
2022/11/24 13:24:24;;;;;;;25.45;18.98;;;;;;;4.93;87.22;99495.72;1782548;80;20995;-64
2022/11/24 13:27:18;;;;;;;27.45;19.15;;;;;;;4.95;87.22;99492.98;1782756;79;20991;-65